X  CloseMetar Aviation Weather Data     LSZB Bern-Belp Airport

Temperatur

5°C Temperatur

1°C Taupunkt

76% Feuchtigkeit



Wind

23 KM/H

14 MPH

 6 M/S

12 KTS



260°
West
Aktuelle Wetterlage

Meistens vereinzelte Wolken Meistens vereinzelte Wolken
Luftdruck 1010.84 (hPa) - 29.85 (in)
Sichtweite 6 (mi) - 9.7 (km)
Flughafen
Airport-code LSZB

Position Bern-Belp Airport 5 (km)

Metar:
LSZB 170550Z 26012KT 9999 SCT040 BKN055 05/01 Q1011 RERA WS ALL RWY

Zeit: 17-04-2024 05:50